sensor_id;sensor_type;location;lat;lon;timestamp;P1;durP1;ratioP1;P2;durP2;ratioP2
19049;SDS011;9657;45.940;12.840;2023-07-28T00:02:11;19.73;;;8.27;;
19049;SDS011;9657;45.940;12.840;2023-07-28T00:04:38;19.55;;;8.18;;
19049;SDS011;9657;45.940;12.840;2023-07-28T00:07:05;19.30;;;7.85;;
19049;SDS011;9657;45.940;12.840;2023-07-28T00:09:33;21.35;;;8.27;;
19049;SDS011;9657;45.940;12.840;2023-07-28T00:12:00;16.65;;;7.68;;
19049;SDS011;9657;45.940;12.840;2023-07-28T00:14:27;18.05;;;8.55;;
19049;SDS011;9657;45.940;12.840;2023-07-28T00:16:55;17.00;;;7.05;;
19049;SDS011;9657;45.940;12.840;2023-07-28T00:19:24;19.48;;;8.13;;
19049;SDS011;9657;45.940;12.840;2023-07-28T00:21:52;18.45;;;7.22;;
19049;SDS011;9657;45.940;12.840;2023-07-28T00:24:21;17.33;;;7.28;;
19049;SDS011;9657;45.940;12.840;2023-07-28T00:26:48;18.80;;;7.57;;
19049;SDS011;9657;45.940;12.840;2023-07-28T00:29:15;19.83;;;7.18;;
19049;SDS011;9657;45.940;12.840;2023-07-28T00:31:42;16.05;;;7.63;;
19049;SDS011;9657;45.940;12.840;2023-07-28T00:34:09;11.73;;;6.30;;
19049;SDS011;9657;45.940;12.840;2023-07-28T00:36:38;15.00;;;6.18;;
19049;SDS011;9657;45.940;12.840;2023-07-28T00:39:06;15.48;;;6.78;;
19049;SDS011;9657;45.940;12.840;2023-07-28T00:41:33;15.30;;;6.40;;
19049;SDS011;9657;45.940;12.840;2023-07-28T00:44:00;15.00;;;6.18;;
19049;SDS011;9657;45.940;12.840;2023-07-28T00:46:27;15.55;;;6.18;;
19049;SDS011;9657;45.940;12.840;2023-07-28T00:48:54;11.75;;;5.35;;
19049;SDS011;9657;45.940;12.840;2023-07-28T00:51:21;15.88;;;6.53;;
19049;SDS011;9657;45.940;12.840;2023-07-28T00:53:50;9.20;;;4.88;;
19049;SDS011;9657;45.940;12.840;2023-07-28T00:56:18;12.10;;;5.60;;
19049;SDS011;9657;45.940;12.840;2023-07-28T00:58:46;15.80;;;5.85;;
19049;SDS011;9657;45.940;12.840;2023-07-28T01:03:49;12.73;;;5.22;;
19049;SDS011;9657;45.940;12.840;2023-07-28T01:06:18;10.00;;;5.05;;
19049;SDS011;9657;45.940;12.840;2023-07-28T01:08:54;15.70;;;5.32;;
19049;SDS011;9657;45.940;12.840;2023-07-28T01:11:25;12.02;;;5.35;;
19049;SDS011;9657;45.940;12.840;2023-07-28T01:13:52;9.32;;;4.93;;
19049;SDS011;9657;45.940;12.840;2023-07-28T01:16:19;9.60;;;4.55;;
19049;SDS011;9657;45.940;12.840;2023-07-28T01:18:47;11.00;;;4.70;;
19049;SDS011;9657;45.940;12.840;2023-07-28T01:21:20;8.45;;;4.15;;
19049;SDS011;9657;45.940;12.840;2023-07-28T01:24:01;9.70;;;4.88;;
19049;SDS011;9657;45.940;12.840;2023-07-28T01:26:34;12.50;;;4.53;;
19049;SDS011;9657;45.940;12.840;2023-07-28T01:29:02;10.60;;;4.38;;
19049;SDS011;9657;45.940;12.840;2023-07-28T01:31:29;13.82;;;5.18;;
19049;SDS011;9657;45.940;12.840;2023-07-28T01:33:57;8.68;;;4.75;;
19049;SDS011;9657;45.940;12.840;2023-07-28T01:36:24;8.65;;;4.97;;
19049;SDS011;9657;45.940;12.840;2023-07-28T01:38:51;8.85;;;4.43;;
19049;SDS011;9657;45.940;12.840;2023-07-28T01:41:19;10.10;;;4.15;;
19049;SDS011;9657;45.940;12.840;2023-07-28T01:43:47;7.90;;;4.05;;
19049;SDS011;9657;45.940;12.840;2023-07-28T01:46:14;10.82;;;4.18;;
19049;SDS011;9657;45.940;12.840;2023-07-28T01:48:41;7.32;;;4.30;;
19049;SDS011;9657;45.940;12.840;2023-07-28T01:51:08;10.27;;;4.13;;
19049;SDS011;9657;45.940;12.840;2023-07-28T01:53:35;9.07;;;4.03;;
19049;SDS011;9657;45.940;12.840;2023-07-28T01:56:02;9.52;;;3.75;;
19049;SDS011;9657;45.940;12.840;2023-07-28T01:58:29;9.63;;;4.00;;
19049;SDS011;9657;45.940;12.840;2023-07-28T02:00:58;8.05;;;3.45;;
19049;SDS011;9657;45.940;12.840;2023-07-28T02:03:25;8.02;;;3.70;;
19049;SDS011;9657;45.940;12.840;2023-07-28T02:05:52;5.97;;;3.47;;
19049;SDS011;9657;45.940;12.840;2023-07-28T02:08:19;6.53;;;3.40;;
19049;SDS011;9657;45.940;12.840;2023-07-28T02:10:46;11.38;;;4.10;;
19049;SDS011;9657;45.940;12.840;2023-07-28T02:13:13;6.95;;;3.50;;
19049;SDS011;9657;45.940;12.840;2023-07-28T02:15:40;5.88;;;3.20;;
19049;SDS011;9657;45.940;12.840;2023-07-28T02:18:09;7.30;;;3.53;;
19049;SDS011;9657;45.940;12.840;2023-07-28T02:20:36;5.97;;;3.63;;
19049;SDS011;9657;45.940;12.840;2023-07-28T02:23:04;6.43;;;3.38;;
19049;SDS011;9657;45.940;12.840;2023-07-28T02:25:31;6.40;;;3.35;;
19049;SDS011;9657;45.940;12.840;2023-07-28T02:27:58;7.55;;;3.05;;
19049;SDS011;9657;45.940;12.840;2023-07-28T02:30:25;6.43;;;3.15;;
19049;SDS011;9657;45.940;12.840;2023-07-28T02:32:52;5.65;;;3.42;;
19049;SDS011;9657;45.940;12.840;2023-07-28T02:35:20;4.75;;;3.05;;
19049;SDS011;9657;45.940;12.840;2023-07-28T02:37:47;6.05;;;3.00;;
19049;SDS011;9657;45.940;12.840;2023-07-28T02:40:14;5.35;;;3.03;;
19049;SDS011;9657;45.940;12.840;2023-07-28T02:42:41;6.43;;;3.20;;
19049;SDS011;9657;45.940;12.840;2023-07-28T02:45:09;6.53;;;3.28;;
19049;SDS011;9657;45.940;12.840;2023-07-28T02:47:36;5.55;;;2.85;;
19049;SDS011;9657;45.940;12.840;2023-07-28T02:50:03;4.53;;;2.33;;
19049;SDS011;9657;45.940;12.840;2023-07-28T02:52:32;4.78;;;2.67;;
19049;SDS011;9657;45.940;12.840;2023-07-28T02:54:59;5.97;;;2.70;;
19049;SDS011;9657;45.940;12.840;2023-07-28T02:57:26;4.40;;;2.45;;
19049;SDS011;9657;45.940;12.840;2023-07-28T02:59:54;6.22;;;2.85;;
19049;SDS011;9657;45.940;12.840;2023-07-28T03:02:21;5.57;;;2.63;;
19049;SDS011;9657;45.940;12.840;2023-07-28T03:04:48;4.43;;;2.50;;
19049;SDS011;9657;45.940;12.840;2023-07-28T03:07:15;4.18;;;2.45;;
19049;SDS011;9657;45.940;12.840;2023-07-28T03:09:43;4.30;;;2.58;;
19049;SDS011;9657;45.940;12.840;2023-07-28T03:12:10;7.35;;;3.35;;
19049;SDS011;9657;45.940;12.840;2023-07-28T03:14:37;5.20;;;2.40;;
19049;SDS011;9657;45.940;12.840;2023-07-28T03:17:04;4.28;;;2.50;;
19049;SDS011;9657;45.940;12.840;2023-07-28T03:19:32;4.32;;;2.65;;
19049;SDS011;9657;45.940;12.840;2023-07-28T03:21:59;4.07;;;2.83;;
19049;SDS011;9657;45.940;12.840;2023-07-28T03:24:26;3.63;;;2.30;;
19049;SDS011;9657;45.940;12.840;2023-07-28T03:26:54;3.35;;;2.00;;
19049;SDS011;9657;45.940;12.840;2023-07-28T03:29:21;6.30;;;2.38;;
19049;SDS011;9657;45.940;12.840;2023-07-28T03:31:48;4.43;;;2.33;;
19049;SDS011;9657;45.940;12.840;2023-07-28T03:34:15;4.10;;;2.17;;
19049;SDS011;9657;45.940;12.840;2023-07-28T03:36:42;3.65;;;2.40;;
19049;SDS011;9657;45.940;12.840;2023-07-28T03:39:09;4.32;;;2.88;;
19049;SDS011;9657;45.940;12.840;2023-07-28T03:41:36;3.90;;;2.38;;
19049;SDS011;9657;45.940;12.840;2023-07-28T03:44:05;3.55;;;2.60;;
19049;SDS011;9657;45.940;12.840;2023-07-28T03:46:32;5.30;;;3.17;;
19049;SDS011;9657;45.940;12.840;2023-07-28T03:48:59;5.43;;;2.15;;
19049;SDS011;9657;45.940;12.840;2023-07-28T03:51:26;4.00;;;2.40;;
19049;SDS011;9657;45.940;12.840;2023-07-28T03:53:53;3.90;;;2.40;;
19049;SDS011;9657;45.940;12.840;2023-07-28T03:56:20;4.25;;;2.25;;
19049;SDS011;9657;45.940;12.840;2023-07-28T03:58:47;5.10;;;2.60;;
19049;SDS011;9657;45.940;12.840;2023-07-28T04:01:15;3.28;;;2.33;;
19049;SDS011;9657;45.940;12.840;2023-07-28T04:03:43;4.25;;;2.50;;
19049;SDS011;9657;45.940;12.840;2023-07-28T04:06:10;3.80;;;2.20;;
19049;SDS011;9657;45.940;12.840;2023-07-28T04:08:38;3.75;;;2.03;;
19049;SDS011;9657;45.940;12.840;2023-07-28T04:11:05;2.95;;;2.20;;
19049;SDS011;9657;45.940;12.840;2023-07-28T04:13:32;3.80;;;2.47;;
19049;SDS011;9657;45.940;12.840;2023-07-28T04:15:59;4.25;;;2.08;;
19049;SDS011;9657;45.940;12.840;2023-07-28T04:18:28;3.45;;;2.20;;
19049;SDS011;9657;45.940;12.840;2023-07-28T04:20:55;5.43;;;2.45;;
19049;SDS011;9657;45.940;12.840;2023-07-28T04:23:22;3.65;;;2.00;;
19049;SDS011;9657;45.940;12.840;2023-07-28T04:25:49;4.60;;;2.45;;
19049;SDS011;9657;45.940;12.840;2023-07-28T04:28:16;3.42;;;2.30;;
19049;SDS011;9657;45.940;12.840;2023-07-28T04:30:44;4.03;;;2.45;;
19049;SDS011;9657;45.940;12.840;2023-07-28T04:33:11;2.88;;;2.13;;
19049;SDS011;9657;45.940;12.840;2023-07-28T04:35:39;4.03;;;2.00;;
19049;SDS011;9657;45.940;12.840;2023-07-28T04:38:06;2.85;;;2.20;;
19049;SDS011;9657;45.940;12.840;2023-07-28T04:40:33;2.78;;;2.13;;
19049;SDS011;9657;45.940;12.840;2023-07-28T04:43:00;4.22;;;2.50;;
19049;SDS011;9657;45.940;12.840;2023-07-28T04:45:27;3.88;;;2.15;;
19049;SDS011;9657;45.940;12.840;2023-07-28T04:47:54;3.08;;;2.30;;
19049;SDS011;9657;45.940;12.840;2023-07-28T04:50:22;2.33;;;2.10;;
19049;SDS011;9657;45.940;12.840;2023-07-28T04:52:50;2.92;;;1.83;;
19049;SDS011;9657;45.940;12.840;2023-07-28T04:55:17;3.67;;;2.28;;
19049;SDS011;9657;45.940;12.840;2023-07-28T04:57:44;4.65;;;2.40;;
19049;SDS011;9657;45.940;12.840;2023-07-28T05:00:11;3.67;;;2.25;;
19049;SDS011;9657;45.940;12.840;2023-07-28T05:02:39;4.35;;;2.10;;
19049;SDS011;9657;45.940;12.840;2023-07-28T05:05:06;3.17;;;2.60;;
19049;SDS011;9657;45.940;12.840;2023-07-28T05:07:34;3.30;;;1.83;;
19049;SDS011;9657;45.940;12.840;2023-07-28T05:10:02;3.25;;;2.25;;
19049;SDS011;9657;45.940;12.840;2023-07-28T05:12:30;3.30;;;2.25;;
19049;SDS011;9657;45.940;12.840;2023-07-28T05:14:57;2.50;;;1.98;;
19049;SDS011;9657;45.940;12.840;2023-07-28T05:17:24;2.95;;;2.08;;
19049;SDS011;9657;45.940;12.840;2023-07-28T05:19:51;4.22;;;2.28;;
19049;SDS011;9657;45.940;12.840;2023-07-28T05:22:18;3.50;;;2.20;;
19049;SDS011;9657;45.940;12.840;2023-07-28T05:24:45;3.47;;;2.10;;
19049;SDS011;9657;45.940;12.840;2023-07-28T05:27:13;2.40;;;2.15;;
19049;SDS011;9657;45.940;12.840;2023-07-28T05:29:41;3.20;;;2.17;;
19049;SDS011;9657;45.940;12.840;2023-07-28T05:32:08;3.30;;;2.25;;
19049;SDS011;9657;45.940;12.840;2023-07-28T05:34:35;4.28;;;2.08;;
19049;SDS011;9657;45.940;12.840;2023-07-28T05:37:02;2.38;;;1.98;;
19049;SDS011;9657;45.940;12.840;2023-07-28T05:39:30;3.03;;;2.13;;
19049;SDS011;9657;45.940;12.840;2023-07-28T05:41:57;4.22;;;1.95;;
19049;SDS011;9657;45.940;12.840;2023-07-28T05:44:26;4.13;;;2.17;;
19049;SDS011;9657;45.940;12.840;2023-07-28T05:46:53;4.88;;;2.47;;
19049;SDS011;9657;45.940;12.840;2023-07-28T05:49:20;5.35;;;2.08;;
19049;SDS011;9657;45.940;12.840;2023-07-28T05:51:47;3.47;;;2.70;;
19049;SDS011;9657;45.940;12.840;2023-07-28T05:54:14;4.10;;;2.20;;
19049;SDS011;9657;45.940;12.840;2023-07-28T05:56:41;3.35;;;2.30;;
19049;SDS011;9657;45.940;12.840;2023-07-28T05:59:08;6.28;;;2.28;;
19049;SDS011;9657;45.940;12.840;2023-07-28T06:01:37;4.00;;;2.60;;
19049;SDS011;9657;45.940;12.840;2023-07-28T06:04:04;3.75;;;2.17;;
19049;SDS011;9657;45.940;12.840;2023-07-28T06:06:31;5.07;;;2.45;;
19049;SDS011;9657;45.940;12.840;2023-07-28T06:08:58;2.88;;;2.25;;
19049;SDS011;9657;45.940;12.840;2023-07-28T06:11:25;6.53;;;2.15;;
19049;SDS011;9657;45.940;12.840;2023-07-28T06:13:53;3.90;;;2.03;;
19049;SDS011;9657;45.940;12.840;2023-07-28T06:16:20;3.60;;;2.60;;
19049;SDS011;9657;45.940;12.840;2023-07-28T06:18:48;5.10;;;2.38;;
19049;SDS011;9657;45.940;12.840;2023-07-28T06:21:15;3.20;;;2.30;;
19049;SDS011;9657;45.940;12.840;2023-07-28T06:23:42;4.32;;;2.70;;
19049;SDS011;9657;45.940;12.840;2023-07-28T06:26:09;2.67;;;2.05;;
19049;SDS011;9657;45.940;12.840;2023-07-28T06:28:36;3.92;;;2.25;;
19049;SDS011;9657;45.940;12.840;2023-07-28T06:31:03;4.78;;;2.88;;
19049;SDS011;9657;45.940;12.840;2023-07-28T06:33:31;3.22;;;2.15;;
19049;SDS011;9657;45.940;12.840;2023-07-28T06:35:59;4.32;;;2.53;;
19049;SDS011;9657;45.940;12.840;2023-07-28T06:38:26;3.92;;;2.20;;
19049;SDS011;9657;45.940;12.840;2023-07-28T06:40:53;2.35;;;2.13;;
19049;SDS011;9657;45.940;12.840;2023-07-28T06:43:21;3.15;;;2.55;;
19049;SDS011;9657;45.940;12.840;2023-07-28T06:45:50;5.78;;;2.33;;
19049;SDS011;9657;45.940;12.840;2023-07-28T06:48:17;4.50;;;2.45;;
19049;SDS011;9657;45.940;12.840;2023-07-28T06:50:44;3.97;;;2.60;;
19049;SDS011;9657;45.940;12.840;2023-07-28T06:53:13;5.05;;;2.53;;
19049;SDS011;9657;45.940;12.840;2023-07-28T06:55:40;5.25;;;2.92;;
19049;SDS011;9657;45.940;12.840;2023-07-28T06:58:09;4.07;;;2.58;;
19049;SDS011;9657;45.940;12.840;2023-07-28T07:00:37;3.10;;;2.30;;
19049;SDS011;9657;45.940;12.840;2023-07-28T07:03:04;3.95;;;2.25;;
19049;SDS011;9657;45.940;12.840;2023-07-28T07:05:31;5.80;;;2.90;;
19049;SDS011;9657;45.940;12.840;2023-07-28T07:07:59;5.38;;;3.20;;
19049;SDS011;9657;45.940;12.840;2023-07-28T07:10:28;4.82;;;3.00;;
19049;SDS011;9657;45.940;12.840;2023-07-28T07:12:55;5.28;;;2.95;;
19049;SDS011;9657;45.940;12.840;2023-07-28T07:15:22;5.97;;;3.00;;
19049;SDS011;9657;45.940;12.840;2023-07-28T07:17:50;5.95;;;3.28;;
19049;SDS011;9657;45.940;12.840;2023-07-28T07:20:17;5.55;;;3.08;;
19049;SDS011;9657;45.940;12.840;2023-07-28T07:22:44;6.72;;;3.20;;
19049;SDS011;9657;45.940;12.840;2023-07-28T07:25:12;5.30;;;3.53;;
19049;SDS011;9657;45.940;12.840;2023-07-28T07:27:40;4.50;;;2.97;;
19049;SDS011;9657;45.940;12.840;2023-07-28T07:30:08;6.47;;;3.72;;
19049;SDS011;9657;45.940;12.840;2023-07-28T07:32:35;5.47;;;3.30;;
19049;SDS011;9657;45.940;12.840;2023-07-28T07:35:03;6.90;;;4.00;;
19049;SDS011;9657;45.940;12.840;2023-07-28T07:37:30;9.25;;;3.90;;
19049;SDS011;9657;45.940;12.840;2023-07-28T07:39:58;7.00;;;3.13;;
19049;SDS011;9657;45.940;12.840;2023-07-28T07:42:25;9.73;;;3.58;;
19049;SDS011;9657;45.940;12.840;2023-07-28T07:44:53;6.07;;;3.15;;
19049;SDS011;9657;45.940;12.840;2023-07-28T07:47:20;10.68;;;3.45;;
19049;SDS011;9657;45.940;12.840;2023-07-28T07:49:47;9.90;;;3.55;;
19049;SDS011;9657;45.940;12.840;2023-07-28T07:52:14;6.22;;;3.15;;
19049;SDS011;9657;45.940;12.840;2023-07-28T07:54:41;6.75;;;4.00;;
19049;SDS011;9657;45.940;12.840;2023-07-28T07:57:08;6.90;;;3.47;;
19049;SDS011;9657;45.940;12.840;2023-07-28T07:59:35;7.43;;;3.63;;
19049;SDS011;9657;45.940;12.840;2023-07-28T08:02:04;4.53;;;3.03;;
19049;SDS011;9657;45.940;12.840;2023-07-28T08:04:32;4.60;;;3.25;;
19049;SDS011;9657;45.940;12.840;2023-07-28T08:06:59;6.75;;;3.30;;
19049;SDS011;9657;45.940;12.840;2023-07-28T08:09:26;8.15;;;3.20;;
19049;SDS011;9657;45.940;12.840;2023-07-28T08:11:53;9.38;;;3.03;;
19049;SDS011;9657;45.940;12.840;2023-07-28T08:14:20;5.57;;;3.25;;
19049;SDS011;9657;45.940;12.840;2023-07-28T08:16:47;5.47;;;3.35;;
19049;SDS011;9657;45.940;12.840;2023-07-28T08:19:16;3.83;;;3.17;;
19049;SDS011;9657;45.940;12.840;2023-07-28T08:21:43;5.75;;;2.88;;
19049;SDS011;9657;45.940;12.840;2023-07-28T08:24:10;5.05;;;2.53;;
19049;SDS011;9657;45.940;12.840;2023-07-28T08:26:37;5.40;;;3.03;;
19049;SDS011;9657;45.940;12.840;2023-07-28T08:29:04;4.00;;;2.50;;
19049;SDS011;9657;45.940;12.840;2023-07-28T08:31:31;6.75;;;3.10;;
19049;SDS011;9657;45.940;12.840;2023-07-28T08:33:58;3.75;;;2.60;;
19049;SDS011;9657;45.940;12.840;2023-07-28T08:36:27;4.50;;;2.88;;
19049;SDS011;9657;45.940;12.840;2023-07-28T08:38:54;3.92;;;2.50;;
19049;SDS011;9657;45.940;12.840;2023-07-28T08:41:21;3.80;;;2.47;;
19049;SDS011;9657;45.940;12.840;2023-07-28T08:43:48;3.97;;;2.92;;
19049;SDS011;9657;45.940;12.840;2023-07-28T08:46:16;3.05;;;2.60;;
19049;SDS011;9657;45.940;12.840;2023-07-28T08:48:43;4.03;;;2.55;;
19049;SDS011;9657;45.940;12.840;2023-07-28T08:51:11;8.02;;;2.83;;
19049;SDS011;9657;45.940;12.840;2023-07-28T08:53:40;3.33;;;2.42;;
19049;SDS011;9657;45.940;12.840;2023-07-28T08:56:08;3.83;;;2.88;;
19049;SDS011;9657;45.940;12.840;2023-07-28T08:58:35;4.55;;;2.42;;
19049;SDS011;9657;45.940;12.840;2023-07-28T09:01:03;2.95;;;2.40;;
19049;SDS011;9657;45.940;12.840;2023-07-28T09:03:30;7.10;;;3.08;;
19049;SDS011;9657;45.940;12.840;2023-07-28T09:05:59;3.03;;;2.13;;
19049;SDS011;9657;45.940;12.840;2023-07-28T09:08:27;3.65;;;2.45;;
19049;SDS011;9657;45.940;12.840;2023-07-28T09:10:57;2.85;;;2.47;;
19049;SDS011;9657;45.940;12.840;2023-07-28T09:13:34;4.82;;;3.20;;
19049;SDS011;9657;45.940;12.840;2023-07-28T09:16:03;3.50;;;2.85;;
19049;SDS011;9657;45.940;12.840;2023-07-28T09:18:30;4.53;;;2.60;;
19049;SDS011;9657;45.940;12.840;2023-07-28T09:20:57;5.13;;;2.63;;
19049;SDS011;9657;45.940;12.840;2023-07-28T09:23:27;4.10;;;2.78;;
19049;SDS011;9657;45.940;12.840;2023-07-28T09:25:59;3.95;;;3.33;;
19049;SDS011;9657;45.940;12.840;2023-07-28T09:28:36;4.22;;;2.75;;
19049;SDS011;9657;45.940;12.840;2023-07-28T09:31:04;2.85;;;2.47;;
19049;SDS011;9657;45.940;12.840;2023-07-28T09:33:32;3.83;;;2.30;;
19049;SDS011;9657;45.940;12.840;2023-07-28T09:36:06;4.22;;;3.03;;
19049;SDS011;9657;45.940;12.840;2023-07-28T09:38:36;4.53;;;2.33;;
19049;SDS011;9657;45.940;12.840;2023-07-28T09:41:07;3.25;;;2.35;;
19049;SDS011;9657;45.940;12.840;2023-07-28T09:43:35;2.95;;;2.05;;
19049;SDS011;9657;45.940;12.840;2023-07-28T09:46:03;3.00;;;2.40;;
19049;SDS011;9657;45.940;12.840;2023-07-28T09:48:31;2.95;;;2.33;;
19049;SDS011;9657;45.940;12.840;2023-07-28T09:51:00;4.28;;;2.65;;
19049;SDS011;9657;45.940;12.840;2023-07-28T09:53:35;3.47;;;2.25;;
19049;SDS011;9657;45.940;12.840;2023-07-28T09:56:08;2.95;;;2.03;;
19049;SDS011;9657;45.940;12.840;2023-07-28T09:58:37;1.88;;;1.63;;
19049;SDS011;9657;45.940;12.840;2023-07-28T10:01:07;2.85;;;1.73;;
19049;SDS011;9657;45.940;12.840;2023-07-28T10:03:36;2.55;;;2.20;;
19049;SDS011;9657;45.940;12.840;2023-07-28T10:06:03;2.70;;;2.20;;
19049;SDS011;9657;45.940;12.840;2023-07-28T10:08:31;2.20;;;2.00;;
19049;SDS011;9657;45.940;12.840;2023-07-28T10:10:58;3.53;;;2.00;;
19049;SDS011;9657;45.940;12.840;2023-07-28T10:13:33;2.15;;;1.77;;
19049;SDS011;9657;45.940;12.840;2023-07-28T10:16:07;2.67;;;1.98;;
19049;SDS011;9657;45.940;12.840;2023-07-28T10:18:35;2.05;;;1.88;;
19049;SDS011;9657;45.940;12.840;2023-07-28T10:21:05;1.92;;;1.77;;
19049;SDS011;9657;45.940;12.840;2023-07-28T10:23:34;4.18;;;2.00;;
19049;SDS011;9657;45.940;12.840;2023-07-28T10:26:02;2.38;;;2.00;;
19049;SDS011;9657;45.940;12.840;2023-07-28T10:28:33;2.55;;;1.65;;
19049;SDS011;9657;45.940;12.840;2023-07-28T10:31:04;2.85;;;1.98;;
19049;SDS011;9657;45.940;12.840;2023-07-28T10:33:32;2.53;;;1.73;;
19049;SDS011;9657;45.940;12.840;2023-07-28T10:36:10;2.15;;;1.67;;
19049;SDS011;9657;45.940;12.840;2023-07-28T10:38:39;1.70;;;1.60;;
19049;SDS011;9657;45.940;12.840;2023-07-28T10:41:07;2.05;;;1.60;;
19049;SDS011;9657;45.940;12.840;2023-07-28T10:43:36;1.60;;;1.50;;
19049;SDS011;9657;45.940;12.840;2023-07-28T10:46:04;1.70;;;1.50;;
19049;SDS011;9657;45.940;12.840;2023-07-28T10:48:34;1.67;;;1.52;;
19049;SDS011;9657;45.940;12.840;2023-07-28T10:51:02;2.88;;;1.75;;
19049;SDS011;9657;45.940;12.840;2023-07-28T10:53:29;1.90;;;1.70;;
19049;SDS011;9657;45.940;12.840;2023-07-28T10:55:58;2.10;;;1.63;;
19049;SDS011;9657;45.940;12.840;2023-07-28T10:58:25;2.22;;;1.75;;
19049;SDS011;9657;45.940;12.840;2023-07-28T11:00:54;2.17;;;1.98;;
19049;SDS011;9657;45.940;12.840;2023-07-28T11:03:22;1.85;;;1.60;;
19049;SDS011;9657;45.940;12.840;2023-07-28T11:05:49;2.25;;;1.70;;
19049;SDS011;9657;45.940;12.840;2023-07-28T11:08:16;2.53;;;2.05;;
19049;SDS011;9657;45.940;12.840;2023-07-28T11:10:44;1.92;;;1.60;;
19049;SDS011;9657;45.940;12.840;2023-07-28T11:13:11;2.05;;;1.67;;
19049;SDS011;9657;45.940;12.840;2023-07-28T11:15:39;2.45;;;2.15;;
19049;SDS011;9657;45.940;12.840;2023-07-28T11:18:08;2.63;;;2.03;;
19049;SDS011;9657;45.940;12.840;2023-07-28T11:20:36;2.50;;;1.52;;
19049;SDS011;9657;45.940;12.840;2023-07-28T11:23:04;4.32;;;1.70;;
19049;SDS011;9657;45.940;12.840;2023-07-28T11:25:31;1.52;;;1.42;;
19049;SDS011;9657;45.940;12.840;2023-07-28T11:28:00;3.35;;;1.73;;
19049;SDS011;9657;45.940;12.840;2023-07-28T11:30:30;2.28;;;1.67;;
19049;SDS011;9657;45.940;12.840;2023-07-28T11:32:58;1.58;;;1.48;;
19049;SDS011;9657;45.940;12.840;2023-07-28T11:35:27;1.95;;;1.52;;
19049;SDS011;9657;45.940;12.840;2023-07-28T11:37:54;2.00;;;1.60;;
19049;SDS011;9657;45.940;12.840;2023-07-28T11:40:22;1.73;;;1.50;;
19049;SDS011;9657;45.940;12.840;2023-07-28T11:42:51;1.75;;;1.50;;
19049;SDS011;9657;45.940;12.840;2023-07-28T11:45:20;1.85;;;1.38;;
19049;SDS011;9657;45.940;12.840;2023-07-28T11:47:54;2.75;;;1.70;;
19049;SDS011;9657;45.940;12.840;2023-07-28T11:50:22;1.95;;;1.60;;
19049;SDS011;9657;45.940;12.840;2023-07-28T11:52:52;1.88;;;1.70;;
19049;SDS011;9657;45.940;12.840;2023-07-28T11:55:20;1.98;;;1.70;;
19049;SDS011;9657;45.940;12.840;2023-07-28T11:57:47;1.65;;;1.55;;
19049;SDS011;9657;45.940;12.840;2023-07-28T12:00:15;2.20;;;1.33;;
19049;SDS011;9657;45.940;12.840;2023-07-28T12:02:43;2.40;;;1.75;;
19049;SDS011;9657;45.940;12.840;2023-07-28T12:05:12;1.90;;;1.70;;
19049;SDS011;9657;45.940;12.840;2023-07-28T12:07:40;1.77;;;1.60;;
19049;SDS011;9657;45.940;12.840;2023-07-28T12:10:09;2.00;;;1.80;;
19049;SDS011;9657;45.940;12.840;2023-07-28T12:12:41;2.60;;;2.00;;
19049;SDS011;9657;45.940;12.840;2023-07-28T12:15:19;2.22;;;1.42;;
19049;SDS011;9657;45.940;12.840;2023-07-28T12:18:03;1.42;;;1.33;;
19049;SDS011;9657;45.940;12.840;2023-07-28T12:20:35;2.05;;;1.63;;
19049;SDS011;9657;45.940;12.840;2023-07-28T12:23:03;1.52;;;1.42;;
19049;SDS011;9657;45.940;12.840;2023-07-28T12:25:32;4.07;;;2.00;;
19049;SDS011;9657;45.940;12.840;2023-07-28T12:28:00;2.03;;;1.70;;
19049;SDS011;9657;45.940;12.840;2023-07-28T12:30:27;1.70;;;1.48;;
19049;SDS011;9657;45.940;12.840;2023-07-28T12:32:54;1.73;;;1.45;;
19049;SDS011;9657;45.940;12.840;2023-07-28T12:35:21;2.53;;;1.52;;
19049;SDS011;9657;45.940;12.840;2023-07-28T12:37:49;2.35;;;1.70;;
19049;SDS011;9657;45.940;12.840;2023-07-28T12:40:17;2.55;;;1.70;;
19049;SDS011;9657;45.940;12.840;2023-07-28T12:42:47;2.20;;;1.65;;
19049;SDS011;9657;45.940;12.840;2023-07-28T12:45:14;1.60;;;1.42;;
19049;SDS011;9657;45.940;12.840;2023-07-28T12:47:41;1.67;;;1.50;;
19049;SDS011;9657;45.940;12.840;2023-07-28T12:50:09;1.48;;;1.38;;
19049;SDS011;9657;45.940;12.840;2023-07-28T12:52:36;1.63;;;1.33;;
19049;SDS011;9657;45.940;12.840;2023-07-28T12:55:03;3.28;;;1.52;;
19049;SDS011;9657;45.940;12.840;2023-07-28T12:57:30;1.67;;;1.58;;
19049;SDS011;9657;45.940;12.840;2023-07-28T12:59:59;2.20;;;1.70;;
19049;SDS011;9657;45.940;12.840;2023-07-28T13:02:26;1.40;;;1.30;;
19049;SDS011;9657;45.940;12.840;2023-07-28T13:04:53;2.22;;;1.40;;
19049;SDS011;9657;45.940;12.840;2023-07-28T13:07:20;2.00;;;1.80;;
19049;SDS011;9657;45.940;12.840;2023-07-28T13:09:47;1.45;;;1.20;;
19049;SDS011;9657;45.940;12.840;2023-07-28T13:12:14;2.03;;;1.60;;
19049;SDS011;9657;45.940;12.840;2023-07-28T13:14:41;1.63;;;1.30;;
19049;SDS011;9657;45.940;12.840;2023-07-28T13:17:10;1.85;;;1.65;;
19049;SDS011;9657;45.940;12.840;2023-07-28T13:19:38;2.60;;;1.70;;
19049;SDS011;9657;45.940;12.840;2023-07-28T13:22:05;2.05;;;1.50;;
19049;SDS011;9657;45.940;12.840;2023-07-28T13:24:32;3.58;;;1.48;;
19049;SDS011;9657;45.940;12.840;2023-07-28T13:26:59;2.20;;;1.73;;
19049;SDS011;9657;45.940;12.840;2023-07-28T13:29:26;1.98;;;1.70;;
19049;SDS011;9657;45.940;12.840;2023-07-28T13:31:56;2.45;;;1.70;;
19049;SDS011;9657;45.940;12.840;2023-07-28T13:34:25;2.35;;;1.63;;
19049;SDS011;9657;45.940;12.840;2023-07-28T13:36:53;1.40;;;1.30;;
19049;SDS011;9657;45.940;12.840;2023-07-28T13:39:20;2.25;;;1.70;;
19049;SDS011;9657;45.940;12.840;2023-07-28T13:41:47;1.65;;;1.55;;
19049;SDS011;9657;45.940;12.840;2023-07-28T13:44:15;3.10;;;1.60;;
19049;SDS011;9657;45.940;12.840;2023-07-28T13:46:42;1.30;;;1.20;;
19049;SDS011;9657;45.940;12.840;2023-07-28T13:49:09;3.25;;;1.60;;
19049;SDS011;9657;45.940;12.840;2023-07-28T13:51:37;2.50;;;1.90;;
19049;SDS011;9657;45.940;12.840;2023-07-28T13:54:04;1.63;;;1.40;;
19049;SDS011;9657;45.940;12.840;2023-07-28T13:56:31;1.95;;;1.80;;
19049;SDS011;9657;45.940;12.840;2023-07-28T13:58:59;1.95;;;1.50;;
19049;SDS011;9657;45.940;12.840;2023-07-28T14:01:26;1.70;;;1.40;;
19049;SDS011;9657;45.940;12.840;2023-07-28T14:03:53;2.38;;;1.58;;
19049;SDS011;9657;45.940;12.840;2023-07-28T14:06:20;1.42;;;1.27;;
19049;SDS011;9657;45.940;12.840;2023-07-28T14:08:48;1.88;;;1.60;;
19049;SDS011;9657;45.940;12.840;2023-07-28T14:11:15;3.38;;;1.70;;
19049;SDS011;9657;45.940;12.840;2023-07-28T14:13:42;3.92;;;1.95;;
19049;SDS011;9657;45.940;12.840;2023-07-28T14:16:09;1.80;;;1.60;;
19049;SDS011;9657;45.940;12.840;2023-07-28T14:18:37;3.35;;;1.90;;
19049;SDS011;9657;45.940;12.840;2023-07-28T14:21:05;2.35;;;1.65;;
19049;SDS011;9657;45.940;12.840;2023-07-28T14:23:33;3.42;;;1.67;;
19049;SDS011;9657;45.940;12.840;2023-07-28T14:26:01;2.17;;;1.42;;
19049;SDS011;9657;45.940;12.840;2023-07-28T14:28:28;2.60;;;1.40;;
19049;SDS011;9657;45.940;12.840;2023-07-28T14:30:56;1.85;;;1.17;;
19049;SDS011;9657;45.940;12.840;2023-07-28T14:33:23;1.67;;;1.30;;
19049;SDS011;9657;45.940;12.840;2023-07-28T14:35:50;2.75;;;1.63;;
19049;SDS011;9657;45.940;12.840;2023-07-28T14:38:17;2.58;;;1.52;;
19049;SDS011;9657;45.940;12.840;2023-07-28T14:40:44;2.67;;;1.50;;
19049;SDS011;9657;45.940;12.840;2023-07-28T14:43:15;1.98;;;1.60;;
19049;SDS011;9657;45.940;12.840;2023-07-28T14:45:42;1.65;;;1.48;;
19049;SDS011;9657;45.940;12.840;2023-07-28T14:48:09;4.85;;;1.75;;
19049;SDS011;9657;45.940;12.840;2023-07-28T14:50:37;2.55;;;1.73;;
19049;SDS011;9657;45.940;12.840;2023-07-28T14:53:10;2.38;;;1.65;;